createdAt,value
2019-05-21T00:00:59.547Z,17.50
2019-05-21T00:03:29.396Z,15.83
2019-05-21T00:05:59.036Z,17.62
2019-05-21T00:08:28.717Z,16.15
2019-05-21T00:10:58.484Z,15.25
2019-05-21T00:13:28.197Z,15.32
2019-05-21T00:15:57.770Z,13.48
2019-05-21T00:18:27.508Z,14.38
2019-05-21T00:20:57.104Z,13.98
2019-05-21T00:23:26.795Z,13.30
2019-05-21T00:25:56.464Z,13.45
2019-05-21T00:28:39.349Z,12.43
2019-05-21T00:32:04.400Z,12.63
2019-05-21T00:35:30.441Z,13.28
2019-05-21T00:38:54.746Z,13.20
2019-05-21T00:42:01.114Z,14.75
2019-05-21T00:44:34.854Z,14.73
2019-05-21T00:47:07.445Z,14.30
2019-05-21T00:49:37.166Z,14.40
2019-05-21T00:52:09.176Z,14.63
2019-05-21T00:54:39.244Z,13.38
2019-05-21T00:57:09.018Z,12.07
2019-05-21T00:59:38.736Z,13.15
2019-05-21T01:02:08.566Z,11.65
2019-05-21T01:04:38.329Z,12.88
2019-05-21T01:07:08.037Z,13.10
2019-05-21T01:09:37.654Z,12.98
2019-05-21T01:12:07.299Z,12.47
2019-05-21T01:14:36.865Z,12.95
2019-05-21T01:17:06.617Z,13.65
2019-05-21T01:19:36.392Z,13.40
2019-05-21T01:22:06.380Z,12.90
2019-05-21T01:24:35.965Z,13.48
2019-05-21T01:27:05.729Z,12.07
2019-05-21T01:29:35.652Z,13.13
2019-05-21T01:32:05.379Z,13.95
2019-05-21T01:34:35.122Z,14.33
2019-05-21T01:37:04.962Z,14.43
2019-05-21T01:39:34.705Z,14.87
2019-05-21T01:42:04.855Z,15.10
2019-05-21T01:44:34.417Z,14.58
2019-05-21T01:47:04.174Z,14.83
2019-05-21T01:49:33.822Z,16.50
2019-05-21T01:52:03.375Z,16.48
2019-05-21T01:54:36.997Z,16.23
2019-05-21T01:57:06.683Z,16.93
2019-05-21T01:59:36.404Z,17.35
2019-05-21T02:02:06.154Z,16.97
2019-05-21T02:04:36.014Z,16.15
2019-05-21T02:07:05.915Z,16.87
2019-05-21T02:09:37.274Z,16.65
2019-05-21T02:12:10.606Z,17.60
2019-05-21T02:14:38.558Z,16.42
2019-05-21T02:17:08.176Z,16.52
2019-05-21T02:19:37.896Z,16.85
2019-05-21T02:22:07.605Z,16.93
2019-05-21T02:24:37.179Z,16.25
2019-05-21T02:27:07.038Z,16.42
2019-05-21T02:29:36.645Z,16.17
2019-05-21T02:32:06.302Z,16.07
2019-05-21T02:34:36.009Z,15.40
2019-05-21T02:37:06.550Z,15.15
2019-05-21T02:39:36.667Z,15.98
2019-05-21T02:42:06.395Z,17.90
2019-05-21T02:44:36.085Z,16.67
2019-05-21T02:47:06.086Z,16.40
2019-05-21T02:49:35.847Z,15.72
2019-05-21T02:52:05.719Z,17.30
2019-05-21T02:54:40.663Z,17.25
2019-05-21T02:57:06.797Z,17.75
2019-05-21T02:59:36.540Z,18.02
2019-05-21T03:02:10.651Z,18.90
2019-05-21T03:04:40.624Z,18.12
2019-05-21T03:07:19.230Z,20.02
2019-05-21T03:09:52.039Z,20.40
2019-05-21T03:12:21.809Z,19.10
2019-05-21T03:14:51.477Z,18.40
2019-05-21T03:17:22.705Z,17.48
2019-05-21T03:19:52.536Z,17.67
2019-05-21T03:22:22.274Z,17.27
2019-05-21T03:24:52.262Z,16.97
2019-05-21T03:27:22.366Z,16.82
2019-05-21T03:29:52.526Z,16.52
2019-05-21T03:32:22.381Z,17.60
2019-05-21T03:34:52.759Z,16.85
2019-05-21T03:37:22.853Z,15.78
2019-05-21T03:39:52.979Z,15.80
2019-05-21T03:42:23.409Z,16.00
2019-05-21T03:44:59.959Z,15.72
2019-05-21T03:47:25.538Z,15.10
2019-05-21T03:49:55.647Z,14.58
2019-05-21T03:52:25.645Z,14.73
2019-05-21T03:54:55.674Z,13.03
2019-05-21T03:57:26.140Z,12.98
2019-05-21T03:59:56.838Z,12.58
2019-05-21T04:02:27.005Z,12.82
2019-05-21T04:04:57.019Z,13.32
2019-05-21T04:07:27.672Z,13.22
2019-05-21T04:09:57.758Z,13.45
2019-05-21T04:12:28.241Z,13.90
2019-05-21T04:15:06.065Z,13.35
2019-05-21T04:17:38.253Z,13.65
2019-05-21T04:20:09.000Z,13.95
2019-05-21T04:22:41.119Z,13.88
2019-05-21T04:27:40.584Z,12.45
2019-05-21T04:30:11.644Z,12.03
2019-05-21T04:32:41.949Z,11.55
2019-05-21T04:35:13.085Z,12.30
2019-05-21T04:37:43.451Z,11.43
2019-05-21T04:40:13.848Z,12.60
2019-05-21T04:42:44.520Z,12.70
2019-05-21T04:45:15.108Z,12.78
2019-05-21T04:47:46.349Z,13.38
2019-05-21T04:50:16.639Z,12.47
2019-05-21T04:52:46.894Z,12.63
2019-05-21T04:55:17.185Z,12.80
2019-05-21T04:57:47.517Z,12.28
2019-05-21T05:00:18.176Z,13.20
2019-05-21T05:02:48.626Z,13.05
2019-05-21T05:05:19.144Z,13.08
2019-05-21T05:07:49.323Z,13.58
2019-05-21T05:10:19.499Z,12.98
2019-05-21T05:12:49.905Z,13.43
2019-05-21T05:15:20.155Z,12.82
2019-05-21T05:17:50.634Z,12.75
2019-05-21T05:20:20.982Z,12.45
2019-05-21T05:22:51.317Z,12.23
2019-05-21T05:25:21.610Z,12.25
2019-05-21T05:27:51.972Z,12.70
2019-05-21T05:30:22.605Z,11.68
2019-05-21T05:32:53.313Z,12.60
2019-05-21T05:35:23.728Z,13.50
2019-05-21T05:37:54.219Z,12.65
2019-05-21T05:40:24.692Z,12.40
2019-05-21T05:42:54.864Z,12.03
2019-05-21T05:45:26.577Z,11.88
2019-05-21T05:47:58.321Z,12.35
2019-05-21T05:50:33.443Z,12.43
2019-05-21T05:53:03.719Z,12.95
2019-05-21T05:55:33.876Z,12.25
2019-05-21T05:58:04.601Z,12.88
2019-05-21T06:00:35.120Z,13.38
2019-05-21T06:03:05.441Z,12.85
2019-05-21T06:05:35.654Z,12.63
2019-05-21T06:08:05.912Z,13.70
2019-05-21T06:10:39.861Z,13.72
2019-05-21T06:13:07.932Z,14.38
2019-05-21T06:15:38.332Z,14.33
2019-05-21T06:18:08.686Z,14.65
2019-05-21T06:20:39.235Z,13.58
2019-05-21T06:23:09.624Z,13.55
2019-05-21T06:25:40.030Z,13.45
2019-05-21T06:28:10.453Z,13.20
2019-05-21T06:30:40.675Z,13.58
2019-05-21T06:33:11.074Z,13.72
2019-05-21T06:35:41.379Z,12.70
2019-05-21T06:38:17.519Z,14.15
2019-05-21T06:40:43.377Z,13.60
2019-05-21T06:43:14.030Z,13.48
2019-05-21T06:45:44.587Z,14.45
2019-05-21T06:48:14.668Z,14.13
2019-05-21T06:50:45.153Z,13.68
2019-05-21T06:53:15.369Z,14.40
2019-05-21T06:55:45.849Z,14.80
2019-05-21T06:58:15.939Z,14.28
2019-05-21T07:00:46.490Z,14.93
2019-05-21T07:03:16.789Z,15.20
2019-05-21T07:05:58.322Z,13.25
2019-05-21T07:08:33.603Z,13.43
2019-05-21T07:10:50.987Z,12.82
2019-05-21T07:13:21.362Z,13.80
2019-05-21T07:15:51.446Z,12.78
2019-05-21T07:18:21.562Z,12.90
2019-05-21T07:20:51.935Z,13.30
2019-05-21T07:23:22.134Z,12.70
2019-05-21T07:25:52.453Z,13.22
2019-05-21T07:28:22.835Z,12.88
2019-05-21T07:30:53.033Z,12.35
2019-05-21T07:33:23.365Z,13.25
2019-05-21T07:35:53.637Z,13.78
2019-05-21T07:38:24.127Z,12.90
2019-05-21T07:40:54.829Z,13.70
2019-05-21T07:43:25.378Z,12.45
2019-05-21T07:45:56.172Z,13.08
2019-05-21T07:48:26.706Z,12.18
2019-05-21T07:50:57.390Z,13.53
2019-05-21T07:53:29.460Z,11.73
2019-05-21T07:55:59.586Z,11.75
2019-05-21T07:58:31.451Z,11.78
2019-05-21T08:01:01.954Z,12.18
2019-05-21T08:03:32.546Z,11.08
2019-05-21T08:06:03.019Z,11.10
2019-05-21T08:08:33.470Z,12.58
2019-05-21T08:11:03.840Z,11.55
2019-05-21T08:16:04.108Z,10.93
2019-05-21T08:18:34.793Z,11.20
2019-05-21T08:21:05.474Z,10.38
2019-05-21T08:23:35.904Z,10.65
2019-05-21T08:26:07.301Z,10.23
2019-05-21T08:28:37.846Z,11.15
2019-05-21T08:31:08.699Z,10.25
2019-05-21T08:33:39.219Z,10.85
2019-05-21T08:36:09.794Z,10.35
2019-05-21T08:41:09.867Z,10.28
2019-05-21T08:43:40.273Z,9.88
2019-05-21T08:46:10.631Z,10.00
2019-05-21T08:48:41.050Z,9.53
2019-05-21T08:51:11.634Z,9.58
2019-05-21T08:53:41.870Z,9.65
2019-05-21T08:56:12.138Z,9.15
2019-05-21T08:58:42.393Z,9.85
2019-05-21T09:01:12.631Z,9.83
2019-05-21T09:03:43.035Z,9.60
2019-05-21T09:06:13.402Z,9.20
2019-05-21T09:08:43.951Z,9.85
2019-05-21T09:11:14.362Z,10.13
2019-05-21T09:13:44.510Z,9.85
2019-05-21T09:16:14.778Z,9.40
2019-05-21T09:18:45.065Z,10.10
2019-05-21T09:21:15.224Z,12.68
2019-05-21T09:23:45.782Z,10.38
2019-05-21T09:26:16.040Z,10.60
2019-05-21T09:28:46.256Z,10.80
2019-05-21T09:31:16.441Z,10.70
2019-05-21T09:33:46.752Z,10.65
2019-05-21T09:36:17.156Z,11.25
2019-05-21T09:38:47.893Z,10.55
2019-05-21T09:41:18.418Z,12.18
2019-05-21T09:43:49.091Z,11.88
2019-05-21T09:46:21.255Z,12.85
2019-05-21T09:51:21.490Z,12.30
2019-05-21T09:53:53.413Z,13.08
2019-05-21T09:56:34.880Z,12.63
2019-05-21T09:59:24.569Z,12.75
2019-05-21T10:02:02.251Z,13.80
2019-05-21T10:07:03.674Z,13.05
2019-05-21T10:12:05.599Z,12.65
2019-05-21T10:14:35.980Z,13.03
2019-05-21T10:17:06.411Z,12.47
2019-05-21T10:19:36.775Z,13.30
2019-05-21T10:22:09.035Z,12.05
2019-05-21T10:27:11.659Z,13.43
2019-05-21T10:29:43.305Z,12.55
2019-05-21T10:32:13.626Z,12.20
2019-05-21T10:34:44.188Z,12.23
2019-05-21T10:37:14.517Z,11.75
2019-05-21T10:39:45.172Z,10.32
2019-05-21T10:42:15.431Z,11.63
2019-05-21T10:44:46.012Z,11.00
2019-05-21T10:47:17.288Z,11.18
2019-05-21T10:49:47.481Z,12.07
2019-05-21T10:52:17.982Z,10.30
2019-05-21T10:54:48.139Z,10.32
2019-05-21T10:57:18.764Z,11.60
2019-05-21T10:59:49.864Z,10.63
2019-05-21T11:02:28.255Z,10.80
2019-05-21T11:05:00.520Z,9.25
2019-05-21T11:07:31.187Z,10.00
2019-05-21T11:10:01.582Z,9.68
2019-05-21T11:12:31.773Z,10.08
2019-05-21T11:15:01.937Z,10.25
2019-05-21T11:17:46.924Z,9.48
2019-05-21T11:22:33.845Z,10.50
2019-05-21T11:25:05.080Z,9.10
2019-05-21T11:27:35.456Z,10.03
2019-05-21T11:30:09.978Z,8.95
2019-05-21T11:32:40.437Z,8.73
2019-05-21T11:35:11.876Z,8.58
2019-05-21T11:37:42.069Z,9.55
2019-05-21T11:40:13.182Z,8.38
2019-05-21T11:42:43.536Z,9.18
2019-05-21T11:45:29.420Z,8.88
2019-05-21T11:47:46.057Z,8.48
2019-05-21T11:50:18.325Z,8.08
2019-05-21T11:52:48.646Z,8.68
2019-05-21T11:55:18.841Z,9.03
2019-05-21T11:57:49.153Z,9.05
2019-05-21T12:00:22.012Z,9.45
2019-05-21T12:02:52.832Z,8.90
2019-05-21T12:05:24.249Z,9.38
2019-05-21T12:07:54.819Z,8.08
2019-05-21T12:10:26.860Z,8.88
2019-05-21T12:12:57.575Z,8.60
2019-05-21T12:15:28.020Z,9.15
2019-05-21T12:18:01.054Z,9.33
2019-05-21T12:20:36.719Z,8.78
2019-05-21T12:23:07.070Z,8.80
2019-05-21T12:25:38.034Z,8.25
2019-05-21T12:28:11.089Z,8.70
2019-05-21T12:30:40.516Z,8.55
2019-05-21T12:33:10.761Z,8.33
2019-05-21T12:35:41.060Z,9.13
2019-05-21T12:38:11.865Z,9.83
2019-05-21T12:40:41.915Z,9.25
2019-05-21T12:43:12.503Z,9.53
2019-05-21T12:45:42.760Z,8.95
2019-05-21T12:48:13.144Z,9.60
2019-05-21T12:50:43.873Z,9.40
2019-05-21T12:53:16.660Z,9.55
2019-05-21T12:55:46.620Z,9.20
2019-05-21T12:58:17.124Z,8.18
2019-05-21T13:00:47.865Z,9.08
2019-05-21T13:03:18.035Z,9.35
2019-05-21T13:05:48.654Z,8.88
2019-05-21T13:08:18.836Z,8.23
2019-05-21T13:10:49.093Z,8.60
2019-05-21T13:13:19.630Z,8.13
2019-05-21T13:15:49.994Z,8.53
2019-05-21T13:18:21.901Z,8.53
2019-05-21T13:20:52.440Z,8.53
2019-05-21T13:23:22.825Z,10.85
2019-05-21T13:25:53.128Z,10.40
2019-05-21T13:28:23.371Z,10.98
2019-05-21T13:30:53.674Z,12.70
2019-05-21T13:33:24.027Z,12.33
2019-05-21T13:35:54.362Z,12.15
2019-05-21T13:38:24.739Z,15.93
2019-05-21T13:40:55.397Z,19.30
2019-05-21T13:43:25.578Z,18.23
2019-05-21T13:45:56.091Z,15.35
2019-05-21T13:48:26.828Z,13.93
2019-05-21T13:50:58.061Z,14.47
2019-05-21T13:53:29.528Z,13.22
2019-05-21T13:56:00.239Z,12.58
2019-05-21T13:58:31.154Z,11.95
2019-05-21T14:01:02.905Z,11.68
2019-05-21T14:03:33.567Z,11.18
2019-05-21T14:06:03.890Z,11.60
2019-05-21T14:08:34.239Z,11.30
2019-05-21T14:11:04.874Z,10.68
2019-05-21T14:13:37.027Z,11.50
2019-05-21T14:16:07.595Z,11.15
2019-05-21T14:18:37.861Z,10.65
2019-05-21T14:21:08.412Z,10.82
2019-05-21T14:23:38.927Z,11.43
2019-05-21T14:26:09.472Z,10.55
2019-05-21T14:28:39.964Z,10.85
2019-05-21T14:31:10.440Z,11.03
2019-05-21T14:33:40.863Z,11.22
2019-05-21T14:36:11.281Z,9.78
2019-05-21T14:38:41.924Z,9.15
2019-05-21T14:41:12.350Z,11.55
2019-05-21T14:43:43.059Z,10.53
2019-05-21T14:46:13.458Z,10.40
2019-05-21T14:48:43.933Z,10.00
2019-05-21T14:51:14.268Z,10.43
2019-05-21T14:53:44.568Z,9.98
2019-05-21T14:56:14.664Z,9.18
2019-05-21T14:58:45.622Z,9.38
2019-05-21T15:01:15.914Z,9.03
2019-05-21T15:03:46.175Z,8.98
2019-05-21T15:06:16.439Z,8.25
2019-05-21T15:08:47.846Z,8.85
2019-05-21T15:11:19.363Z,8.95
2019-05-21T15:13:50.215Z,9.05
2019-05-21T15:16:22.151Z,8.28
2019-05-21T15:18:54.094Z,8.63
2019-05-21T15:21:28.364Z,8.43
2019-05-21T15:23:58.797Z,8.73
2019-05-21T15:26:29.644Z,8.30
2019-05-21T15:29:01.410Z,9.03
2019-05-21T15:31:32.425Z,9.28
2019-05-21T15:34:03.003Z,9.80
2019-05-21T15:36:33.456Z,9.23
2019-05-21T15:39:05.409Z,9.03
2019-05-21T15:41:35.753Z,9.43
2019-05-21T15:44:06.288Z,8.93
2019-05-21T15:46:47.965Z,9.28
2019-05-21T15:49:10.938Z,9.03
2019-05-21T15:51:44.821Z,8.65
2019-05-21T15:54:15.269Z,9.30
2019-05-21T15:56:45.679Z,9.10
2019-05-21T15:59:15.843Z,9.65
2019-05-21T16:01:45.939Z,9.05
2019-05-21T16:04:16.893Z,8.35
2019-05-21T16:06:47.389Z,8.33
2019-05-21T16:09:17.689Z,8.35
2019-05-21T16:11:49.971Z,8.68
2019-05-21T16:14:20.169Z,9.35
2019-05-21T16:16:50.466Z,10.10
2019-05-21T16:19:20.667Z,8.75
2019-05-21T16:21:51.148Z,8.98
2019-05-21T16:24:23.097Z,7.92
2019-05-21T16:26:53.419Z,8.80
2019-05-21T16:29:25.231Z,8.28
2019-05-21T16:31:58.740Z,8.60
2019-05-21T16:34:31.940Z,7.35
2019-05-21T16:39:30.979Z,7.47
2019-05-21T16:42:01.297Z,7.20
2019-05-21T16:44:31.775Z,7.28
2019-05-21T16:47:02.142Z,7.90
2019-05-21T16:49:32.788Z,7.05
2019-05-21T16:52:05.363Z,7.30
2019-05-21T16:57:05.130Z,6.40
2019-05-21T16:59:36.605Z,5.80
2019-05-21T17:02:07.368Z,4.33
2019-05-21T17:04:39.171Z,4.40
2019-05-21T17:07:09.923Z,4.17
2019-05-21T17:09:40.151Z,4.20
2019-05-21T17:12:10.732Z,3.30
2019-05-21T17:14:41.030Z,3.65
2019-05-21T17:17:11.685Z,3.55
2019-05-21T17:19:41.810Z,3.30
2019-05-21T17:22:12.026Z,3.60
2019-05-21T17:24:42.744Z,3.10
2019-05-21T17:27:13.053Z,3.15
2019-05-21T17:29:43.260Z,3.22
2019-05-21T17:32:14.531Z,3.10
2019-05-21T17:34:44.799Z,3.58
2019-05-21T17:37:15.071Z,3.42
2019-05-21T17:39:47.141Z,3.10
2019-05-21T17:44:48.248Z,2.62
2019-05-21T17:47:19.020Z,2.12
2019-05-21T17:49:51.224Z,1.92
2019-05-21T17:52:22.500Z,2.40
2019-05-21T17:54:56.813Z,2.10
2019-05-21T17:57:25.346Z,2.52
2019-05-21T17:59:55.469Z,2.40
2019-05-21T18:02:25.912Z,2.30
2019-05-21T18:04:58.276Z,2.58
2019-05-21T18:07:29.084Z,2.98
2019-05-21T18:10:00.255Z,2.72
2019-05-21T18:12:32.299Z,2.80
2019-05-21T18:15:02.547Z,2.52
2019-05-21T18:17:35.006Z,2.98
2019-05-21T18:20:07.721Z,2.90
2019-05-21T18:22:39.324Z,2.92
2019-05-21T18:25:10.630Z,2.47
2019-05-21T18:27:43.039Z,2.70
2019-05-21T18:30:14.619Z,2.60
2019-05-21T18:32:45.413Z,2.72
2019-05-21T18:35:15.912Z,2.92
2019-05-21T18:37:46.024Z,2.77
2019-05-21T18:40:16.430Z,3.02
2019-05-21T18:42:46.671Z,2.60
2019-05-21T18:45:17.407Z,2.62
2019-05-21T18:47:50.707Z,2.90
2019-05-21T18:50:35.038Z,2.80
2019-05-21T18:55:24.199Z,2.45
2019-05-21T18:57:54.193Z,2.30
2019-05-21T19:00:24.526Z,2.30
2019-05-21T19:02:54.635Z,2.30
2019-05-21T19:05:26.479Z,2.80
2019-05-21T19:07:56.728Z,2.70
2019-05-21T19:10:28.144Z,2.37
2019-05-21T19:13:00.805Z,3.00
2019-05-21T19:15:30.255Z,3.17
2019-05-21T19:18:00.328Z,3.00
2019-05-21T19:20:34.411Z,2.95
2019-05-21T19:23:04.735Z,3.02
2019-05-21T19:25:37.467Z,3.65
2019-05-21T19:28:07.677Z,2.67
2019-05-21T19:30:37.946Z,3.20
2019-05-21T19:33:08.879Z,3.37
2019-05-21T19:35:40.379Z,3.25
2019-05-21T19:38:10.522Z,3.20
2019-05-21T19:40:41.629Z,3.40
2019-05-21T19:43:11.453Z,4.20
2019-05-21T19:45:41.702Z,3.77
2019-05-21T19:48:11.629Z,3.47
2019-05-21T19:50:43.178Z,3.45
2019-05-21T19:53:14.071Z,4.10
2019-05-21T19:55:44.444Z,3.67
2019-05-21T19:58:14.037Z,4.00
2019-05-21T20:00:56.508Z,3.65
2019-05-21T20:03:26.327Z,3.30
2019-05-21T20:05:57.824Z,3.67
2019-05-21T20:08:28.793Z,3.70
2019-05-21T20:10:58.963Z,3.67
2019-05-21T20:13:32.546Z,4.05
2019-05-21T20:16:01.860Z,4.37
2019-05-21T20:18:31.601Z,4.12
2019-05-21T20:21:02.826Z,4.20
2019-05-21T20:23:33.000Z,4.07
2019-05-21T20:26:02.772Z,4.05
2019-05-21T20:28:32.696Z,3.62
2019-05-21T20:31:05.543Z,3.83
2019-05-21T20:33:37.000Z,4.58
2019-05-21T20:36:06.829Z,4.15
2019-05-21T20:38:37.048Z,3.47
2019-05-21T20:41:08.429Z,3.75
2019-05-21T20:43:39.753Z,4.78
2019-05-21T20:46:09.787Z,3.83
2019-05-21T20:48:41.512Z,3.55
2019-05-21T20:51:12.062Z,3.30
2019-05-21T20:53:43.376Z,3.80
2019-05-21T20:56:13.539Z,3.47
2019-05-21T20:58:43.279Z,3.67
2019-05-21T21:01:14.073Z,3.70
2019-05-21T21:03:44.062Z,3.08
2019-05-21T21:06:14.573Z,3.72
2019-05-21T21:08:44.241Z,3.35
2019-05-21T21:11:14.213Z,3.75
2019-05-21T21:13:45.782Z,3.42
2019-05-21T21:16:15.702Z,3.35
2019-05-21T21:18:45.586Z,3.65
2019-05-21T21:21:15.850Z,3.50
2019-05-21T21:23:46.868Z,3.62
2019-05-21T21:26:17.983Z,4.00
2019-05-21T21:28:47.777Z,3.52
2019-05-21T21:31:17.533Z,3.55
2019-05-21T21:33:47.387Z,3.50
2019-05-21T21:36:17.156Z,3.50
2019-05-21T21:38:47.141Z,3.65
2019-05-21T21:41:18.274Z,3.30
2019-05-21T21:43:48.161Z,3.83
2019-05-21T21:46:17.978Z,3.45
2019-05-21T21:48:48.050Z,3.10
2019-05-21T21:51:18.342Z,2.90
2019-05-21T21:53:48.046Z,2.95
2019-05-21T21:56:18.199Z,2.77
2019-05-21T21:58:47.965Z,2.83
2019-05-21T22:01:29.468Z,3.00
2019-05-21T22:04:02.678Z,2.75
2019-05-21T22:06:35.857Z,3.20
2019-05-21T22:09:08.918Z,2.92
2019-05-21T22:11:39.367Z,2.60
2019-05-21T22:14:09.524Z,2.72
2019-05-21T22:16:39.479Z,2.77
2019-05-21T22:19:09.682Z,2.70
2019-05-21T22:21:39.609Z,2.47
2019-05-21T22:24:09.522Z,2.47
2019-05-21T22:26:39.539Z,1.82
2019-05-21T22:29:10.474Z,2.00
2019-05-21T22:31:41.388Z,2.35
2019-05-21T22:34:11.685Z,2.50
2019-05-21T22:36:41.584Z,2.35
2019-05-21T22:39:13.648Z,2.20
2019-05-21T22:44:12.455Z,2.70
2019-05-21T22:46:42.194Z,2.22
2019-05-21T22:49:12.450Z,2.35
2019-05-21T22:51:42.110Z,2.25
2019-05-21T22:54:11.804Z,2.37
2019-05-21T22:56:43.004Z,2.40
2019-05-21T22:59:12.934Z,2.70
2019-05-21T23:01:42.857Z,2.35
2019-05-21T23:04:12.613Z,2.60
2019-05-21T23:06:42.406Z,2.60
2019-05-21T23:09:12.375Z,2.95
2019-05-21T23:11:42.172Z,2.80
2019-05-21T23:14:12.349Z,2.77
2019-05-21T23:16:42.935Z,2.83
2019-05-21T23:19:13.258Z,3.50
2019-05-21T23:21:45.259Z,3.42
2019-05-21T23:24:17.309Z,3.10
2019-05-21T23:26:47.939Z,3.40
2019-05-21T23:29:17.735Z,3.60
2019-05-21T23:31:48.074Z,3.55
2019-05-21T23:34:18.945Z,3.40
2019-05-21T23:36:49.541Z,3.50
2019-05-21T23:40:56.315Z,3.47
2019-05-21T23:43:27.041Z,3.87
2019-05-21T23:45:57.407Z,3.42
2019-05-21T23:48:28.138Z,3.77
2019-05-21T23:50:58.196Z,3.35
2019-05-21T23:53:28.067Z,3.42
2019-05-21T23:55:58.537Z,3.80
2019-05-21T23:58:28.511Z,4.10
